Terminal Aerodrome Forecast
Issued by NWS Charleston, WV

Current Version | Previous Version | Graphics & Text | Print | Product List | Glossary On
Versions: 1 2 3 4 5 6 7 8 9 10 11 12 13 14 15 16 17 18 19 20 21 22 23 24 25 26
000
FTUS41 KRLX 140200 AAA
TAFCRW
TAF AMD
KCRW 140201Z 1402/1424 17006KT P6SM BKN250
     FM141300 19010KT P6SM BKN200
     FM141600 20013G22KT P6SM BKN050
     FM142000 20014G25KT P6SM VCTS BKN045CB=

USA.gov is the U.S. government's official web portal to all federal, state and local government web resources and services.